Time;durP1;ratioP1;P1;durP2;ratioP2;P2;SDS_P1;SDS_P2;PMS_P1;PMS_P2;Temp;Humidity;BMP_temperature;BMP_pressure;BME280_temperature;BME280_humidity;BME280_pressure;Samples;Min_cycle;Max_cycle;Signal;HPM_P1;HPM_P2
2021/12/06 00:00:17;;;;;;;9.53;3.40;;;;;;;15.20;62.62;101064.44;1762790;81;21065;-64
2021/12/06 00:02:44;;;;;;;9.60;2.83;;;;;;;15.23;62.54;101066.07;1711849;82;21092;-66
2021/12/06 00:05:10;;;;;;;10.13;2.77;;;;;;;15.22;62.61;101063.93;1720897;82;21066;-67
2021/12/06 00:07:38;;;;;;;11.00;2.83;;;;;;;15.23;62.57;101068.24;1714204;82;21558;-67
2021/12/06 00:10:08;;;;;;;6.05;2.40;;;;;;;15.23;62.62;101067.37;1719480;82;21061;-67
2021/12/06 00:12:36;;;;;;;12.73;2.50;;;;;;;15.24;62.74;101065.17;1720968;82;21065;-67
2021/12/06 00:15:04;;;;;;;7.55;2.52;;;;;;;15.23;62.76;101062.14;1701360;83;21041;-66
2021/12/06 00:17:31;;;;;;;10.53;2.80;;;;;;;15.24;62.77;101062.55;1725184;82;21081;-66
2021/12/06 00:19:57;;;;;;;9.23;2.77;;;;;;;15.23;63.00;101062.14;1721406;82;21078;-68
2021/12/06 00:22:25;;;;;;;8.48;2.70;;;;;;;15.25;62.96;101057.73;1726494;82;21050;-66
2021/12/06 00:24:53;;;;;;;12.90;3.42;;;;;;;15.26;62.89;101064.22;1721046;82;21098;-67
2021/12/06 00:27:21;;;;;;;8.95;2.92;;;;;;;15.27;62.95;101059.84;1719530;82;21147;-67
2021/12/06 00:29:48;;;;;;;8.85;2.72;;;;;;;15.29;62.94;101063.26;1707517;82;21102;-67
2021/12/06 00:32:15;;;;;;;10.80;2.58;;;;;;;15.31;62.94;101065.37;1715793;82;21372;-67
2021/12/06 00:34:42;;;;;;;6.90;2.67;;;;;;;15.30;63.04;101059.70;1714612;82;21534;-67
2021/12/06 00:39:45;;;;;;;8.13;3.02;;;;;;;15.31;63.05;101054.88;1680227;83;21537;-69
2021/12/06 00:42:13;;;;;;;9.13;3.52;;;;;;;15.30;63.06;101059.70;1632959;86;22836;-69
2021/12/06 00:44:40;;;;;;;9.95;3.37;;;;;;;15.31;63.23;101060.13;1631828;86;21009;-69
2021/12/06 00:47:06;;;;;;;8.88;3.37;;;;;;;15.33;63.19;101060.92;1637570;86;21092;-68
2021/12/06 00:49:33;;;;;;;7.45;3.15;;;;;;;15.34;63.12;101062.62;1624735;86;21639;-69
2021/12/06 00:52:00;;;;;;;10.35;3.10;;;;;;;15.33;63.12;101050.44;1635089;86;21051;-69
2021/12/06 00:54:29;;;;;;;13.65;3.72;;;;;;;15.32;63.10;101050.88;1623438;86;21095;-69
2021/12/06 00:56:56;;;;;;;8.38;2.47;;;;;;;15.31;63.22;101047.02;1620374;86;21568;-68
2021/12/06 00:59:22;;;;;;;9.90;2.83;;;;;;;15.32;63.21;101048.71;1623603;86;21092;-68
2021/12/06 01:01:51;;;;;;;12.23;3.77;;;;;;;15.33;63.23;101046.50;1611005;88;21075;-69
2021/12/06 01:04:18;;;;;;;11.30;3.95;;;;;;;15.36;63.15;101046.38;1626031;87;21101;-68
2021/12/06 01:06:44;;;;;;;11.20;2.90;;;;;;;15.38;63.05;101047.17;1619941;87;21573;-68
2021/12/06 01:09:11;;;;;;;10.08;3.62;;;;;;;15.40;62.98;101037.48;1636087;87;21597;-68
2021/12/06 01:11:37;;;;;;;10.98;3.35;;;;;;;15.42;62.85;101042.21;1626501;87;21548;-68
2021/12/06 01:14:04;;;;;;;13.88;3.65;;;;;;;15.44;62.83;101046.98;1625543;87;21207;-68
2021/12/06 01:16:31;;;;;;;11.05;3.52;;;;;;;15.45;62.62;101040.84;1621395;87;21041;-68
2021/12/06 01:18:58;;;;;;;14.13;3.95;;;;;;;15.46;62.55;101039.91;1629625;87;21057;-68
2021/12/06 01:27:01;;;;;;;8.53;3.25;;;;;;;15.41;62.56;101037.90;1604445;87;21152;-67
2021/12/06 01:39:09;;;;;;;9.40;3.30;;;;;;;15.40;62.47;101037.48;1590094;89;21093;-68
2021/12/06 01:39:26;;;;;;;11.12;3.37;;;;;;;15.40;62.36;101034.86;1623187;87;22743;-66
2021/12/06 01:41:55;;;;;;;11.10;3.20;;;;;;;15.40;62.35;101024.38;1624468;87;21030;-67
2021/12/06 01:44:35;;;;;;;12.50;3.65;;;;;;;15.40;62.28;101023.06;1639931;87;21078;-66
2021/12/06 01:47:08;;;;;;;14.50;4.53;;;;;;;15.37;62.18;101012.22;1599173;89;21149;-66
2021/12/06 01:49:38;;;;;;;10.90;3.37;;;;;;;15.34;62.28;101011.49;1597780;89;21583;-67
2021/12/06 01:52:10;;;;;;;10.63;3.33;;;;;;;15.31;62.37;101015.07;1548237;91;21613;-67
2021/12/06 01:54:38;;;;;;;13.45;3.67;;;;;;;15.29;62.50;101005.58;1528989;93;21121;-67
2021/12/06 01:57:06;;;;;;;11.57;3.62;;;;;;;15.30;62.59;101004.65;1526203;93;21165;-67
2021/12/06 01:59:32;;;;;;;8.68;3.37;;;;;;;15.31;62.59;101010.31;1516283;93;21113;-67
2021/12/06 02:02:00;;;;;;;8.68;4.05;;;;;;;15.32;62.62;101005.45;1542870;90;21095;-67
2021/12/06 02:04:28;;;;;;;9.70;3.37;;;;;;;15.34;62.66;101008.87;1545505;91;21122;-66
2021/12/06 02:06:57;;;;;;;9.53;3.00;;;;;;;15.37;62.61;101002.22;1538197;90;21139;-67
2021/12/06 02:09:26;;;;;;;10.18;3.25;;;;;;;15.40;62.57;100998.15;1546824;91;21055;-65
2021/12/06 02:11:58;;;;;;;15.90;4.08;;;;;;;15.45;62.39;100996.26;1535769;92;21124;-66
2021/12/06 02:14:46;;;;;;;13.03;3.35;;;;;;;15.44;62.36;100997.16;1540695;91;21654;-65
2021/12/06 02:17:13;;;;;;;16.42;3.55;;;;;;;15.44;62.41;100998.46;1539888;91;21617;-65
2021/12/06 02:19:41;;;;;;;11.45;3.20;;;;;;;15.43;62.39;100996.29;1566441;90;21064;-65
2021/12/06 02:22:12;;;;;;;13.25;3.35;;;;;;;15.42;62.43;100995.02;1552238;90;21053;-66
2021/12/06 02:24:39;;;;;;;;;;;;;;;15.40;62.41;100992.91;1503633;93;21312;-65
2021/12/06 02:27:08;;;;;;;12.30;2.72;;;;;;;15.41;62.40;100992.01;1515373;93;20149;-64
2021/12/06 02:29:36;;;;;;;13.83;2.83;;;;;;;15.42;62.44;100997.64;1525234;93;21093;-66
2021/12/06 02:32:09;;;;;;;9.45;2.60;;;;;;;15.42;62.52;100996.33;1530675;92;21608;-65
2021/12/06 02:34:33;;;;;;;9.78;2.83;;;;;;;15.43;62.46;100998.08;1551403;91;21081;-68
2021/12/06 02:37:00;;;;;;;11.60;3.50;;;;;;;15.44;62.49;100999.78;1545447;92;21065;-67
2021/12/06 02:39:29;;;;;;;13.05;3.77;;;;;;;15.47;62.35;101002.30;1551862;91;21057;-65
2021/12/06 02:41:56;;;;;;;9.63;3.27;;;;;;;15.48;62.27;101001.37;1551033;91;21193;-66
2021/12/06 02:44:23;;;;;;;10.43;2.95;;;;;;;15.48;62.21;101003.98;1537587;90;21043;-65
2021/12/06 02:46:49;;;;;;;10.85;3.47;;;;;;;15.48;62.24;101009.23;1539731;92;21073;-65
2021/12/06 02:49:17;;;;;;;13.25;2.85;;;;;;;15.48;62.23;101013.17;1532731;91;21077;-66
2021/12/06 02:51:43;;;;;;;9.80;3.00;;;;;;;15.48;62.28;101010.09;1527494;92;21066;-65
2021/12/06 02:54:10;;;;;;;11.60;3.87;;;;;;;15.51;62.23;101016.14;1577377;88;21049;-65
2021/12/06 02:56:53;;;;;;;9.98;3.50;;;;;;;15.52;62.14;101012.63;1576868;89;21050;-64
2021/12/06 02:59:10;;;;;;;9.55;3.45;;;;;;;15.54;62.19;101011.62;1587856;89;21062;-65
2021/12/06 03:01:42;;;;;;;13.95;3.98;;;;;;;15.54;62.07;101003.75;1566332;89;21093;-65
2021/12/06 03:04:09;;;;;;;11.15;3.20;;;;;;;15.56;62.03;101006.34;1576081;89;21574;-65
2021/12/06 03:06:36;;;;;;;16.48;3.55;;;;;;;15.53;61.98;101009.93;1564656;89;21065;-65
2021/12/06 03:09:12;;;;;;;11.95;4.03;;;;;;;15.51;62.13;101002.58;1588559;89;21111;-65
2021/12/06 03:12:00;;;;;;;11.35;3.60;;;;;;;15.51;62.20;101003.89;1569239;89;21670;-65
2021/12/06 03:14:31;;;;;;;14.10;3.47;;;;;;;15.52;62.23;101005.58;1585877;89;21077;-66
2021/12/06 03:17:01;;;;;;;12.00;3.67;;;;;;;15.53;62.28;101004.69;1577981;89;21132;-65
2021/12/06 03:19:28;;;;;;;16.30;3.45;;;;;;;15.53;62.30;100994.64;1581048;89;21114;-65
2021/12/06 03:21:55;;;;;;;12.25;3.50;;;;;;;15.53;62.34;100995.95;1705145;81;20995;-65
2021/12/06 03:24:22;;;;;;;17.20;3.75;;;;;;;15.52;62.33;100993.78;1755501;81;21025;-66
2021/12/06 03:26:49;;;;;;;11.25;3.80;;;;;;;15.51;62.32;100998.64;1753218;80;21038;-65
2021/12/06 03:29:17;;;;;;;11.75;3.72;;;;;;;15.51;62.37;100998.64;1758588;80;21092;-64
2021/12/06 03:31:46;;;;;;;13.83;4.05;;;;;;;15.50;62.44;100994.30;1756997;80;21572;-66
2021/12/06 03:34:13;;;;;;;14.07;3.42;;;;;;;15.51;62.44;100997.33;1755210;80;21121;-66
2021/12/06 03:36:41;;;;;;;11.05;3.70;;;;;;;15.51;62.49;100999.95;1758409;80;21548;-66
2021/12/06 03:39:13;;;;;;;12.68;4.10;;;;;;;15.53;62.55;101009.07;1757488;80;21058;-65
2021/12/06 03:41:40;;;;;;;11.85;4.08;;;;;;;15.55;62.53;101004.17;1723134;82;21553;-65
2021/12/06 03:44:07;;;;;;;12.70;4.08;;;;;;;15.60;62.41;101004.00;1725516;82;21014;-64
2021/12/06 03:46:34;;;;;;;9.05;3.55;;;;;;;15.61;62.30;100997.38;1712589;82;21032;-65
2021/12/06 03:49:08;;;;;;;11.68;3.52;;;;;;;15.62;62.28;100999.06;1728397;82;21032;-65
2021/12/06 03:51:36;;;;;;;13.78;4.05;;;;;;;15.61;62.20;101007.87;1676112;84;21044;-66
2021/12/06 03:54:04;;;;;;;11.95;4.12;;;;;;;15.59;62.24;101001.83;1709451;83;21127;-66
2021/12/06 03:56:31;;;;;;;13.60;4.20;;;;;;;15.58;62.32;101002.72;1706699;83;21033;-66
2021/12/06 03:58:58;;;;;;;9.98;3.55;;;;;;;15.58;62.43;101004.52;1718726;83;21006;-67
2021/12/06 04:01:24;;;;;;;14.33;3.75;;;;;;;15.59;62.47;100999.20;1711635;83;21042;-67
2021/12/06 04:03:51;;;;;;;8.10;3.15;;;;;;;15.63;62.58;100999.93;1715917;83;21059;-67
2021/12/06 04:06:18;;;;;;;11.48;3.35;;;;;;;15.66;62.53;100998.03;1710218;83;21073;-67
2021/12/06 04:08:47;;;;;;;11.30;3.62;;;;;;;15.67;62.53;100990.58;1698505;83;21042;-67
2021/12/06 04:11:15;;;;;;;11.63;3.22;;;;;;;15.71;62.50;100996.10;1718777;83;21148;-67
2021/12/06 04:13:42;;;;;;;12.33;4.10;;;;;;;15.75;62.44;100997.69;1694979;82;21065;-68
2021/12/06 04:16:08;;;;;;;15.13;4.15;;;;;;;15.76;62.52;100994.62;1692117;83;21140;-67
2021/12/06 04:18:37;;;;;;;11.88;4.00;;;;;;;15.78;62.33;100996.28;1693810;83;21526;-67
2021/12/06 04:21:04;;;;;;;14.65;3.77;;;;;;;15.78;62.36;100994.96;1698664;83;21047;-67
2021/12/06 04:23:33;;;;;;;12.03;4.22;;;;;;;15.78;62.31;101000.21;1694007;83;22150;-67
2021/12/06 04:26:00;;;;;;;13.32;4.08;;;;;;;15.78;62.21;100988.86;1705697;83;21493;-68
2021/12/06 04:28:29;;;;;;;13.03;4.28;;;;;;;15.76;62.33;100994.17;1703012;81;21074;-67
2021/12/06 04:30:56;;;;;;;11.45;4.00;;;;;;;15.77;62.39;100987.99;1721148;82;21035;-67
2021/12/06 04:33:23;;;;;;;16.62;4.40;;;;;;;15.79;62.30;100986.16;1728274;81;21190;-67
2021/12/06 04:35:50;;;;;;;12.10;3.55;;;;;;;15.80;62.30;100978.70;1722171;81;21059;-67
2021/12/06 04:38:17;;;;;;;13.03;4.30;;;;;;;15.82;62.31;100988.67;1732848;81;21569;-67
2021/12/06 04:40:43;;;;;;;14.00;4.45;;;;;;;15.83;62.33;100980.33;1749763;80;21023;-67
2021/12/06 04:43:11;;;;;;;8.68;3.50;;;;;;;15.85;62.21;100988.98;1758492;81;21033;-66
2021/12/06 04:45:38;;;;;;;12.23;3.72;;;;;;;15.85;62.16;100991.16;1750621;80;21490;-67
2021/12/06 04:48:06;;;;;;;17.75;4.65;;;;;;;15.84;62.11;100985.98;1766684;80;21018;-67
2021/12/06 04:50:33;;;;;;;16.12;4.75;;;;;;;15.82;62.15;100986.50;1759262;80;21003;-66
2021/12/06 04:53:05;;;;;;;9.58;3.40;;;;;;;15.79;62.13;100995.80;1769960;80;21006;-67
2021/12/06 04:55:47;;;;;;;11.25;4.22;;;;;;;15.77;62.28;100987.99;1744283;80;21058;-66
2021/12/06 04:58:18;;;;;;;12.40;4.30;;;;;;;15.77;62.27;100990.61;1760252;80;21051;-67
2021/12/06 05:00:52;;;;;;;;;;;;;;;15.76;62.29;100992.86;1688045;83;21149;-66
2021/12/06 05:03:19;;;;;;;18.27;4.45;;;;;;;15.76;62.39;100992.86;1688892;83;20163;-67
2021/12/06 05:05:51;;;;;;;11.63;4.45;;;;;;;15.76;62.40;100986.30;1686878;83;21518;-66
2021/12/06 05:08:27;;;;;;;16.90;4.30;;;;;;;15.77;62.32;100987.99;1660088;85;21105;-67
2021/12/06 05:10:54;;;;;;;16.02;4.62;;;;;;;15.76;62.37;100984.98;1602693;89;21599;-67
2021/12/06 05:13:21;;;;;;;8.35;3.75;;;;;;;15.76;62.35;100981.05;1605940;88;21685;-67
2021/12/06 05:15:48;;;;;;;12.28;3.92;;;;;;;15.75;62.35;100980.64;1609577;89;21120;-68
2021/12/06 05:18:16;;;;;;;15.43;3.67;;;;;;;15.74;62.48;100973.70;1606345;89;21545;-67
2021/12/06 05:20:43;;;;;;;10.53;3.17;;;;;;;15.73;62.54;100975.91;1608650;89;21111;-67
2021/12/06 05:23:10;;;;;;;11.40;4.50;;;;;;;15.73;62.60;100977.22;1611521;89;21079;-67
2021/12/06 05:25:36;;;;;;;13.15;3.60;;;;;;;15.73;62.57;100981.16;1606623;88;21606;-67
2021/12/06 05:28:05;;;;;;;11.48;4.12;;;;;;;15.74;62.62;100984.20;1608489;88;21597;-68
2021/12/06 05:30:34;;;;;;;12.45;4.28;;;;;;;15.75;62.61;100979.33;1608767;88;21067;-67
2021/12/06 05:33:02;;;;;;;9.00;3.47;;;;;;;15.77;62.55;100980.12;1586305;89;21186;-67
2021/12/06 05:35:28;;;;;;;12.53;5.05;;;;;;;15.80;62.54;100987.89;1606655;89;21560;-67
2021/12/06 05:37:57;;;;;;;14.38;4.72;;;;;;;15.81;62.47;100986.95;1610291;88;21071;-66
2021/12/06 05:40:27;;;;;;;13.50;3.90;;;;;;;15.81;62.42;100983.02;1609509;89;21590;-67
2021/12/06 05:42:54;;;;;;;13.30;5.22;;;;;;;15.82;62.46;100980.81;1608009;88;21542;-67
2021/12/06 05:45:23;;;;;;;10.98;3.50;;;;;;;15.82;62.40;100990.44;1609584;88;21014;-67
2021/12/06 05:47:49;;;;;;;16.60;3.75;;;;;;;15.81;62.36;100988.72;1609528;88;21147;-67
2021/12/06 05:50:16;;;;;;;16.05;3.58;;;;;;;15.79;62.40;100986.16;1608239;89;21130;-67
2021/12/06 05:52:43;;;;;;;11.25;3.65;;;;;;;15.80;62.45;100994.45;1608036;88;21091;-66
2021/12/06 05:55:11;;;;;;;13.05;3.72;;;;;;;15.79;62.37;100995.34;1607025;87;21104;-66
2021/12/06 05:57:38;;;;;;;9.45;3.60;;;;;;;15.78;62.38;101000.21;1619024;87;21103;-66
2021/12/06 06:00:07;;;;;;;13.40;4.25;;;;;;;15.78;62.33;101004.14;1621067;87;21063;-66
2021/12/06 06:02:36;;;;;;;12.98;3.92;;;;;;;15.78;62.39;101009.39;1624285;87;21109;-67
2021/12/06 06:05:03;;;;;;;13.62;4.62;;;;;;;15.79;62.38;101017.65;1649737;85;21129;-66
2021/12/06 06:07:30;;;;;;;11.75;4.15;;;;;;;15.79;62.31;101020.27;1721818;80;21561;-66
2021/12/06 06:09:57;;;;;;;13.62;4.30;;;;;;;15.81;62.39;101017.13;1765071;80;21156;-67
2021/12/06 06:12:23;;;;;;;12.25;4.30;;;;;;;15.80;62.32;101017.20;1750367;80;20990;-67
2021/12/06 06:14:53;;;;;;;15.80;4.22;;;;;;;15.79;62.29;101020.27;1765315;80;21063;-66
2021/12/06 06:17:20;;;;;;;11.45;4.05;;;;;;;15.77;62.37;101008.98;1754297;81;21112;-66
2021/12/06 06:19:53;;;;;;;12.60;3.85;;;;;;;15.78;62.43;101008.08;1747609;80;21446;-67
2021/12/06 06:22:20;;;;;;;12.35;3.80;;;;;;;15.78;62.41;101004.14;1754060;80;21009;-67
2021/12/06 06:24:46;;;;;;;13.75;4.40;;;;;;;15.80;62.44;101002.31;1763084;80;20998;-65
2021/12/06 06:27:12;;;;;;;12.47;3.90;;;;;;;15.80;62.46;100999.69;1762301;80;20982;-67
2021/12/06 06:29:39;;;;;;;12.20;4.15;;;;;;;15.83;62.40;100999.55;1756263;80;20989;-66
2021/12/06 06:32:06;;;;;;;12.45;3.70;;;;;;;15.84;62.41;100993.41;1747285;80;20983;-66
2021/12/06 06:34:34;;;;;;;10.75;4.40;;;;;;;15.89;62.43;101003.25;1759728;80;21045;-66
2021/12/06 06:37:01;;;;;;;12.88;3.90;;;;;;;15.91;62.33;100996.17;1756487;80;21038;-66
2021/12/06 06:39:27;;;;;;;13.40;4.22;;;;;;;15.96;62.36;100995.99;1762754;80;21057;-66
2021/12/06 06:41:55;;;;;;;11.22;4.03;;;;;;;15.98;62.30;100991.09;1757342;80;21042;-66
2021/12/06 06:44:21;;;;;;;12.00;3.85;;;;;;;16.01;62.19;100983.07;1755272;81;21007;-65
2021/12/06 06:46:49;;;;;;;11.88;4.03;;;;;;;16.02;62.03;100976.92;1757892;80;21024;-66
2021/12/06 06:49:18;;;;;;;12.82;4.03;;;;;;;16.03;62.09;100989.11;1748421;80;21473;-66
2021/12/06 06:51:46;;;;;;;8.18;3.58;;;;;;;16.02;62.06;100983.48;1755850;81;21379;-66
2021/12/06 06:54:13;;;;;;;14.83;4.03;;;;;;;16.02;62.02;100983.48;1753934;80;21078;-66
2021/12/06 06:56:41;;;;;;;13.38;3.67;;;;;;;16.00;62.09;100980.06;1763881;80;21046;-65
2021/12/06 06:59:07;;;;;;;9.75;3.83;;;;;;;16.00;62.29;100987.94;1780511;80;21034;-65
2021/12/06 07:01:34;;;;;;;9.78;3.70;;;;;;;16.01;62.37;100992.26;1752998;80;21036;-66
2021/12/06 07:04:01;;;;;;;13.22;4.03;;;;;;;16.03;62.36;100995.67;1760741;80;21069;-65
2021/12/06 07:06:28;;;;;;;14.13;3.95;;;;;;;16.06;62.32;101007.38;1751275;80;21015;-65
2021/12/06 07:08:56;;;;;;;11.70;3.37;;;;;;;16.08;62.28;101001.61;1746337;80;20999;-66
2021/12/06 07:11:24;;;;;;;13.48;3.55;;;;;;;16.12;62.28;101010.20;1759110;80;21027;-64
2021/12/06 07:13:51;;;;;;;11.73;3.95;;;;;;;16.14;62.20;101007.92;1759205;80;21078;-65
2021/12/06 07:16:18;;;;;;;10.32;3.87;;;;;;;16.16;62.11;101016.59;1768517;80;21024;-66
2021/12/06 07:18:45;;;;;;;12.88;4.37;;;;;;;16.19;62.07;101013.86;1763649;80;21047;-65
2021/12/06 07:21:12;;;;;;;17.23;5.33;;;;;;;16.21;62.08;101013.33;1762549;80;21082;-65
2021/12/06 07:23:40;;;;;;;11.05;4.40;;;;;;;16.24;62.05;101013.19;1765986;80;21500;-65
2021/12/06 07:26:08;;;;;;;12.00;4.37;;;;;;;16.25;61.92;101007.48;1761421;80;21498;-65
2021/12/06 07:28:36;;;;;;;11.50;4.42;;;;;;;16.25;61.85;101012.29;1758153;80;21034;-65
2021/12/06 07:31:06;;;;;;;13.90;5.28;;;;;;;16.25;61.77;101011.42;1774700;80;20978;-65
2021/12/06 07:33:34;;;;;;;11.05;4.35;;;;;;;16.23;61.78;101011.50;1760364;80;21041;-65
2021/12/06 07:36:00;;;;;;;14.70;4.10;;;;;;;16.21;61.85;101004.14;1755800;81;21077;-66
2021/12/06 07:38:28;;;;;;;14.65;3.95;;;;;;;16.21;61.98;101000.20;1745233;81;20997;-66
2021/12/06 07:40:56;;;;;;;15.55;4.08;;;;;;;16.21;62.04;100998.89;1760519;81;21081;-64
2021/12/06 07:43:22;;;;;;;17.87;4.25;;;;;;;16.24;62.05;101000.06;1755870;81;21075;-66
2021/12/06 07:45:49;;;;;;;11.70;4.78;;;;;;;16.26;62.13;100995.59;1752505;81;21041;-66
2021/12/06 07:48:15;;;;;;;15.30;4.78;;;;;;;16.29;62.13;100981.50;1761523;81;21509;-65
2021/12/06 07:50:42;;;;;;;12.95;4.22;;;;;;;16.34;62.10;100993.13;1743632;81;21107;-64
2021/12/06 07:53:10;;;;;;;13.40;4.75;;;;;;;16.38;62.02;100986.83;1759713;81;21153;-65
2021/12/06 07:55:36;;;;;;;15.78;4.33;;;;;;;16.42;61.92;100992.35;1754357;81;20997;-65
2021/12/06 07:58:07;;;;;;;14.58;4.90;;;;;;;16.44;61.73;100995.77;1754776;81;21092;-64
2021/12/06 08:00:39;;;;;;;13.10;4.78;;;;;;;16.44;61.54;100991.83;1759646;81;21030;-65
2021/12/06 08:03:07;;;;;;;14.93;5.15;;;;;;;16.43;61.60;100989.65;1747386;81;21019;-64
2021/12/06 08:05:37;;;;;;;14.85;4.75;;;;;;;16.42;61.66;100991.03;1761941;81;21596;-64
2021/12/06 08:08:12;;;;;;;14.25;4.58;;;;;;;16.42;61.74;100988.41;1762053;81;21107;-64
2021/12/06 08:10:45;;;;;;;16.93;5.53;;;;;;;16.43;61.82;100986.16;1759277;81;21077;-65
2021/12/06 08:13:15;;;;;;;19.00;4.95;;;;;;;16.44;61.76;100985.26;1726066;82;21081;-65
2021/12/06 08:15:41;;;;;;;14.05;5.62;;;;;;;16.47;61.85;100991.23;1720017;82;21061;-64
2021/12/06 08:18:08;;;;;;;14.98;5.20;;;;;;;16.51;61.93;100991.98;1719048;82;21058;-66
2021/12/06 08:20:34;;;;;;;13.35;4.83;;;;;;;16.54;61.77;100994.49;1721643;83;21097;-64
2021/12/06 08:23:01;;;;;;;15.50;4.72;;;;;;;16.59;61.67;100995.16;1724283;82;21089;-65
2021/12/06 08:25:28;;;;;;;12.73;5.20;;;;;;;16.60;61.68;100996.85;1717328;82;21057;-65
2021/12/06 08:27:56;;;;;;;16.77;5.10;;;;;;;16.64;61.56;100997.11;1719818;82;21090;-66
2021/12/06 08:30:23;;;;;;;19.10;6.08;;;;;;;16.66;61.48;100988.71;1724760;82;21250;-65
2021/12/06 08:32:52;;;;;;;10.15;5.58;;;;;;;16.67;61.38;100982.55;1721532;82;21053;-65
2021/12/06 08:35:20;;;;;;;17.23;5.47;;;;;;;16.67;61.31;100979.92;1728465;82;21018;-66
2021/12/06 08:37:46;;;;;;;18.30;7.25;;;;;;;16.66;61.35;100972.94;1728741;83;21007;-63
2021/12/06 08:40:15;;;;;;;15.90;5.72;;;;;;;16.65;61.45;100969.94;1654799;85;21022;-65
2021/12/06 08:42:41;;;;;;;13.28;5.25;;;;;;;16.66;61.43;100976.44;1696231;82;21033;-64
2021/12/06 08:45:10;;;;;;;16.10;6.58;;;;;;;16.67;61.36;100972.04;1732833;82;21086;-65
2021/12/06 08:47:38;;;;;;;14.47;5.10;;;;;;;16.69;61.31;100972.34;1659466;85;21098;-65
2021/12/06 08:50:09;;;;;;;12.37;5.45;;;;;;;16.71;61.24;100981.02;1676097;85;21033;-63
2021/12/06 08:52:36;;;;;;;18.48;6.20;;;;;;;16.74;61.24;100969.52;1641435;87;21045;-63
2021/12/06 08:55:06;;;;;;;12.73;5.33;;;;;;;16.78;61.58;100972.41;1711235;82;21537;-64
2021/12/06 08:57:34;;;;;;;12.28;5.30;;;;;;;16.86;61.51;100970.30;1673276;85;21071;-64
2021/12/06 09:00:01;;;;;;;14.13;6.22;;;;;;;16.93;61.36;100969.98;1650126;85;21590;-65
2021/12/06 09:02:28;;;;;;;14.35;5.90;;;;;;;17.01;61.20;100971.80;1650658;85;21526;-65
2021/12/06 09:04:56;;;;;;;19.23;6.22;;;;;;;17.09;61.05;100972.31;1634089;86;21046;-63
2021/12/06 09:07:24;;;;;;;15.40;6.45;;;;;;;17.16;60.72;100973.34;1642480;86;21110;-63
2021/12/06 09:09:55;;;;;;;19.57;6.45;;;;;;;17.21;60.53;100969.58;1642278;85;21181;-62
2021/12/06 09:12:24;;;;;;;20.02;6.65;;;;;;;17.25;60.42;100965.87;1659492;85;21067;-63
2021/12/06 09:14:56;;;;;;;16.73;5.72;;;;;;;17.29;60.19;100958.23;1628673;86;21047;-63
2021/12/06 09:17:23;;;;;;;18.07;5.78;;;;;;;17.32;59.97;100946.28;1659431;84;21026;-64
2021/12/06 09:19:50;;;;;;;17.17;5.70;;;;;;;17.34;60.02;100941.80;1653705;85;21098;-63
2021/12/06 09:22:18;;;;;;;15.83;6.95;;;;;;;17.36;59.77;100937.32;1652094;84;21085;-63
2021/12/06 09:24:45;;;;;;;21.20;6.72;;;;;;;17.37;59.62;100940.33;1661339;85;21633;-63
2021/12/06 09:27:12;;;;;;;16.52;6.62;;;;;;;17.36;59.49;100929.88;1656778;84;21512;-63
2021/12/06 09:29:40;;;;;;;14.28;6.20;;;;;;;17.33;59.34;100934.81;1625543;86;21186;-63
2021/12/06 09:32:09;;;;;;;18.05;6.22;;;;;;;17.29;59.38;100940.31;1663748;85;21514;-63
2021/12/06 09:34:39;;;;;;;17.98;6.47;;;;;;;17.24;59.40;100932.63;1675009;85;21021;-59
2021/12/06 09:37:06;;;;;;;19.27;6.53;;;;;;;17.18;59.39;100930.29;1656926;85;21096;-60
2021/12/06 09:39:33;;;;;;;15.83;5.85;;;;;;;17.13;59.63;100927.45;1671670;85;21037;-61
2021/12/06 09:42:00;;;;;;;12.80;5.40;;;;;;;17.08;59.79;100913.23;1654449;85;21120;-61
2021/12/06 09:44:26;;;;;;;17.57;6.72;;;;;;;17.06;60.04;100915.08;1663714;85;21040;-62
2021/12/06 09:46:53;;;;;;;15.55;6.20;;;;;;;17.05;60.21;100913.36;1656536;84;21033;-60
2021/12/06 09:49:20;;;;;;;14.53;5.90;;;;;;;17.06;60.23;100907.19;1629554;86;21081;-61
2021/12/06 09:51:51;;;;;;;13.60;5.45;;;;;;;17.06;60.18;100915.08;1688516;83;21081;-62
2021/12/06 09:54:27;;;;;;;15.90;6.00;;;;;;;17.05;60.41;100915.98;1692967;84;21510;-62
2021/12/06 09:56:54;;;;;;;19.40;6.90;;;;;;;17.04;60.76;100917.75;1590588;89;21033;-61
2021/12/06 09:59:24;;;;;;;15.28;5.72;;;;;;;17.04;60.75;100918.23;1585046;89;21157;-61
2021/12/06 10:02:02;;;;;;;17.52;6.00;;;;;;;17.04;60.72;100920.38;1590701;88;21054;-60
2021/12/06 10:04:31;;;;;;;14.40;6.10;;;;;;;17.03;60.62;100923.09;1592085;89;21054;-61
2021/12/06 10:06:58;;;;;;;18.50;5.60;;;;;;;17.01;60.58;100926.25;1583162;89;21094;-61
2021/12/06 10:09:25;;;;;;;16.15;6.17;;;;;;;16.99;60.63;100918.89;1578535;89;21066;-61
2021/12/06 10:11:52;;;;;;;19.60;6.37;;;;;;;16.98;60.64;100918.52;1593027;88;21078;-61
2021/12/06 10:14:19;;;;;;;19.75;6.50;;;;;;;16.99;60.62;100915.81;1589237;89;21123;-61
2021/12/06 10:16:46;;;;;;;20.52;6.17;;;;;;;17.00;60.46;100916.67;1576147;89;21089;-62
2021/12/06 10:19:14;;;;;;;18.02;7.00;;;;;;;17.01;60.40;100903.91;1577426;88;21583;-61
2021/12/06 10:21:41;;;;;;;16.37;5.47;;;;;;;16.99;60.33;100901.36;1585133;89;21043;-60
2021/12/06 10:24:16;;;;;;;19.80;5.58;;;;;;;16.97;60.40;100904.97;1605120;88;21651;-62
2021/12/06 10:26:43;;;;;;;18.27;5.92;;;;;;;16.92;60.49;100897.73;1581870;89;21056;-62
2021/12/06 10:29:19;;;;;;;15.95;5.75;;;;;;;16.91;60.59;100906.11;1587810;88;21102;-62
2021/12/06 10:31:43;;;;;;;21.60;6.60;;;;;;;16.89;60.64;100904.47;1580347;88;21172;-61
2021/12/06 10:34:15;;;;;;;16.35;5.92;;;;;;;16.87;60.82;100907.17;1591805;89;21107;-61
2021/12/06 10:36:41;;;;;;;18.60;6.20;;;;;;;16.86;60.89;100896.70;1571644;89;22278;-61
2021/12/06 10:39:09;;;;;;;19.57;6.37;;;;;;;16.87;60.92;100893.17;1587014;88;23253;-61
2021/12/06 10:41:38;;;;;;;21.33;6.50;;;;;;;16.87;60.93;100893.17;1597936;88;21060;-60
2021/12/06 10:44:11;;;;;;;19.42;4.58;;;;;;;16.88;60.95;100899.66;1587514;88;21583;-60
2021/12/06 10:46:46;;;;;;;19.15;6.60;;;;;;;16.89;60.84;100899.21;1558221;89;21105;-61
2021/12/06 10:49:17;;;;;;;18.00;6.10;;;;;;;16.89;60.84;100908.41;1509299;93;21180;-61
2021/12/06 10:51:44;;;;;;;16.67;5.97;;;;;;;16.87;60.82;100905.00;1464547;96;21138;-62
2021/12/06 10:56:52;;;;;;;15.53;7.35;;;;;;;16.85;60.89;100900.27;1473461;96;21136;-61
2021/12/06 10:59:29;;;;;;;17.00;6.05;;;;;;;16.83;60.84;100906.06;1469959;96;21049;-62
2021/12/06 11:01:58;;;;;;;21.25;6.62;;;;;;;16.79;60.86;100904.03;1453909;96;21164;-61
2021/12/06 11:04:27;;;;;;;15.25;5.72;;;;;;;16.77;61.00;100899.77;1467865;96;21133;-61
2021/12/06 11:06:58;;;;;;;17.77;6.53;;;;;;;16.75;61.12;100891.95;1452979;96;21200;-61
2021/12/06 11:09:26;;;;;;;16.57;5.62;;;;;;;16.73;61.16;100891.63;1470423;96;21077;-61
2021/12/06 11:11:57;;;;;;;11.60;5.28;;;;;;;16.72;61.25;100880.70;1448045;97;21116;-62
2021/12/06 11:14:29;;;;;;;15.05;5.33;;;;;;;16.74;61.35;100885.44;1423605;99;21629;-61
2021/12/06 11:17:06;;;;;;;17.65;6.12;;;;;;;16.76;61.43;100892.79;1438587;98;21663;-61
2021/12/06 11:19:33;;;;;;;17.98;5.83;;;;;;;16.79;61.40;100887.41;1387212;100;21173;-61
2021/12/06 11:22:06;;;;;;;23.02;6.78;;;;;;;16.82;61.22;100887.25;1428648;98;21060;-60
2021/12/06 11:24:41;;;;;;;28.15;7.53;;;;;;;16.84;61.12;100893.30;1441921;98;21142;-61
2021/12/06 11:27:17;;;;;;;20.43;6.03;;;;;;;16.85;61.08;100895.02;1433717;98;21138;-62
2021/12/06 11:29:48;;;;;;;21.00;7.28;;;;;;;16.85;61.11;100884.50;1424110;98;21156;-61
2021/12/06 11:32:31;;;;;;;18.75;6.30;;;;;;;16.86;61.00;100893.63;1412578;100;21592;-60
2021/12/06 11:35:09;;;;;;;17.15;5.80;;;;;;;16.85;60.99;100888.45;1371832;103;21148;-61
2021/12/06 11:37:45;;;;;;;19.02;6.80;;;;;;;16.85;61.02;100889.76;1371250;102;21128;-60
2021/12/06 11:40:23;;;;;;;23.15;7.87;;;;;;;16.84;61.00;100894.61;1342577;105;21148;-61
2021/12/06 11:43:05;;;;;;;16.82;6.83;;;;;;;16.83;61.02;100882.41;1328249;106;21779;-62